createdAt,value
2019-04-27T00:02:36.947Z,99477.22
2019-04-27T00:05:32.250Z,99475.45
2019-04-27T00:08:16.882Z,99488.50
2019-04-27T00:11:09.532Z,99472.48
2019-04-27T00:13:41.692Z,99474.75
2019-04-27T00:16:23.467Z,99465.78
2019-04-27T00:19:13.265Z,99468.88
2019-04-27T00:22:02.746Z,99467.84
2019-04-27T00:24:35.744Z,99475.59
2019-04-27T00:27:06.850Z,99480.37
2019-04-27T00:29:37.718Z,99477.16
2019-04-27T00:32:08.681Z,99477.05
2019-04-27T00:34:39.671Z,99474.87
2019-04-27T00:37:29.472Z,99470.41
2019-04-27T00:40:26.729Z,99466.58
2019-04-27T00:42:57.857Z,99465.75
2019-04-27T00:45:28.813Z,99459.13
2019-04-27T00:48:00.018Z,99456.44
2019-04-27T00:50:33.790Z,99455.09
2019-04-27T00:53:04.877Z,99448.98
2019-04-27T00:55:37.385Z,99446.39
2019-04-27T00:58:27.158Z,99442.78
2019-04-27T01:01:09.892Z,99441.97
2019-04-27T01:03:56.070Z,99442.38
2019-04-27T01:06:27.197Z,99439.36
2019-04-27T01:08:58.184Z,99440.30
2019-04-27T01:11:28.986Z,99437.84
2019-04-27T01:13:59.892Z,99439.50
2019-04-27T01:16:30.673Z,99434.11
2019-04-27T01:19:01.653Z,99435.34
2019-04-27T01:21:32.533Z,99431.01
2019-04-27T01:24:03.509Z,99428.73
2019-04-27T01:27:01.068Z,99429.77
2019-04-27T01:29:33.258Z,99428.20
2019-04-27T01:32:04.942Z,99430.37
2019-04-27T01:34:35.948Z,99426.74
2019-04-27T01:37:06.851Z,99427.25
2019-04-27T01:39:38.722Z,99422.41
2019-04-27T01:42:10.621Z,99422.82
2019-04-27T01:44:41.439Z,99418.59
2019-04-27T01:47:12.347Z,99418.16
2019-04-27T01:49:43.358Z,99410.93
2019-04-27T01:52:14.118Z,99413.30
2019-04-27T01:54:45.104Z,99411.20
2019-04-27T01:57:15.961Z,99407.37
2019-04-27T01:59:48.795Z,99403.64
2019-04-27T02:02:37.082Z,99404.91
2019-04-27T02:05:26.933Z,99410.39
2019-04-27T02:07:59.308Z,99414.80
2019-04-27T02:10:31.141Z,99419.64
2019-04-27T02:13:02.067Z,99416.40
2019-04-27T02:15:33.045Z,99412.69
2019-04-27T02:18:03.962Z,99422.00
2019-04-27T02:20:38.680Z,99408.86
2019-04-27T02:23:09.750Z,99418.56
2019-04-27T02:25:40.662Z,99409.00
2019-04-27T02:28:21.735Z,99400.80
2019-04-27T02:31:10.343Z,99412.19
2019-04-27T02:34:00.169Z,99407.80
2019-04-27T02:36:31.209Z,99409.10
2019-04-27T02:39:02.291Z,99410.50
2019-04-27T02:41:34.619Z,99402.52
2019-04-27T02:44:11.913Z,99396.34
2019-04-27T02:46:42.784Z,99393.42
2019-04-27T02:49:13.721Z,99396.69
2019-04-27T02:52:02.454Z,99393.77
2019-04-27T02:54:33.457Z,99398.33
2019-04-27T02:57:04.323Z,99393.72
2019-04-27T02:59:35.279Z,99396.52
2019-04-27T03:02:25.143Z,99394.55
2019-04-27T03:04:56.015Z,99399.63
2019-04-27T03:07:26.918Z,99393.95
2019-04-27T03:09:59.652Z,99390.44
2019-04-27T03:12:35.358Z,99384.00
2019-04-27T03:15:41.137Z,99381.55
2019-04-27T03:18:16.473Z,99383.22
2019-04-27T03:21:10.396Z,99383.91
2019-04-27T03:23:41.322Z,99382.44
2019-04-27T03:26:31.349Z,99385.13
2019-04-27T03:29:02.449Z,99389.31
2019-04-27T03:31:33.366Z,99391.59
2019-04-27T03:34:05.485Z,99390.44
2019-04-27T03:36:39.356Z,99391.08
2019-04-27T03:39:10.334Z,99390.20
2019-04-27T03:41:41.374Z,99380.92
2019-04-27T03:44:12.270Z,99382.68
2019-04-27T03:46:43.212Z,99381.04
2019-04-27T03:49:28.084Z,99373.80
2019-04-27T03:52:05.599Z,99373.35
2019-04-27T03:54:45.159Z,99374.25
2019-04-27T03:57:24.912Z,99380.82
2019-04-27T04:00:00.334Z,99383.12
2019-04-27T04:02:31.424Z,99372.34
2019-04-27T04:05:02.476Z,99370.68
2019-04-27T04:07:33.527Z,99374.70
2019-04-27T04:10:05.271Z,99368.80
2019-04-27T04:12:51.142Z,99369.99
2019-04-27T04:15:52.197Z,99367.19
2019-04-27T04:18:23.915Z,99367.05
2019-04-27T04:20:54.906Z,99356.66
2019-04-27T04:23:25.685Z,99351.68
2019-04-27T04:25:59.514Z,99357.88
2019-04-27T04:28:29.762Z,99356.27
2019-04-27T04:31:01.034Z,99358.11
2019-04-27T04:33:31.893Z,99357.76
2019-04-27T04:36:02.946Z,99361.26
2019-04-27T04:38:33.902Z,99368.19
2019-04-27T04:41:09.566Z,99366.61
2019-04-27T04:43:46.577Z,99374.48
2019-04-27T04:46:39.944Z,99373.73
2019-04-27T04:49:09.891Z,99377.53
2019-04-27T04:51:41.132Z,99378.71
2019-04-27T04:54:12.096Z,99375.47
2019-04-27T04:56:43.162Z,99383.49
2019-04-27T04:59:13.950Z,99375.66
2019-04-27T05:01:44.900Z,99378.41
2019-04-27T05:04:15.747Z,99376.02
2019-04-27T05:06:46.638Z,99382.78
2019-04-27T05:09:19.220Z,99384.03
2019-04-27T05:11:50.118Z,99393.09
2019-04-27T05:14:21.658Z,99400.34
2019-04-27T05:16:52.589Z,99400.50
2019-04-27T05:19:23.757Z,99403.13
2019-04-27T05:21:54.569Z,99403.97
2019-04-27T05:24:25.600Z,99402.30
2019-04-27T05:26:56.432Z,99405.60
2019-04-27T05:29:29.125Z,99417.23
2019-04-27T05:32:00.246Z,99413.63
2019-04-27T05:34:31.206Z,99411.06
2019-04-27T05:37:02.980Z,99417.77
2019-04-27T05:39:33.802Z,99414.11
2019-04-27T05:42:04.794Z,99415.59
2019-04-27T05:45:03.351Z,99418.77
2019-04-27T05:47:48.373Z,99423.03
2019-04-27T05:50:21.951Z,99428.30
2019-04-27T05:52:51.010Z,99428.32
2019-04-27T05:55:22.125Z,99424.11
2019-04-27T05:57:53.014Z,99425.23
2019-04-27T06:00:23.906Z,99428.38
2019-04-27T06:02:54.786Z,99429.48
2019-04-27T06:05:25.590Z,99428.77
2019-04-27T06:07:56.452Z,99432.00
2019-04-27T06:10:27.232Z,99431.56
2019-04-27T06:12:59.771Z,99432.54
2019-04-27T06:15:30.760Z,99425.34
2019-04-27T06:18:01.689Z,99425.50
2019-04-27T06:20:32.581Z,99419.68
2019-04-27T06:23:03.462Z,99419.38
2019-04-27T06:25:34.465Z,99418.38
2019-04-27T06:28:05.403Z,99418.70
2019-04-27T06:30:36.197Z,99423.71
2019-04-27T06:33:07.074Z,99425.12
2019-04-27T06:35:39.461Z,99421.23
2019-04-27T06:38:11.620Z,99416.94
2019-04-27T06:40:42.600Z,99423.61
2019-04-27T06:43:14.565Z,99420.59
2019-04-27T06:45:45.306Z,99424.25
2019-04-27T06:48:16.187Z,99424.13
2019-04-27T06:50:46.969Z,99422.20
2019-04-27T06:53:19.165Z,99422.72
2019-04-27T06:55:50.169Z,99427.59
2019-04-27T06:58:21.147Z,99428.39
2019-04-27T07:00:52.046Z,99429.68
2019-04-27T07:03:23.380Z,99434.87
2019-04-27T07:05:54.235Z,99436.77
2019-04-27T07:08:25.172Z,99433.46
2019-04-27T07:10:56.105Z,99433.69
2019-04-27T07:13:26.961Z,99439.91
2019-04-27T07:15:59.563Z,99443.13
2019-04-27T07:18:30.272Z,99439.38
2019-04-27T07:21:01.512Z,99439.45
2019-04-27T07:23:32.341Z,99435.83
2019-04-27T07:26:03.389Z,99435.48
2019-04-27T07:28:34.242Z,99435.89
2019-04-27T07:31:05.210Z,99443.13
2019-04-27T07:33:36.002Z,99436.83
2019-04-27T07:36:06.901Z,99441.61
2019-04-27T07:38:39.381Z,99445.10
2019-04-27T07:41:11.227Z,99448.42
2019-04-27T07:44:03.922Z,99453.45
2019-04-27T07:46:34.840Z,99455.52
2019-04-27T07:49:06.209Z,99453.55
2019-04-27T07:51:39.192Z,99454.84
2019-04-27T07:54:09.788Z,99455.00
2019-04-27T07:56:40.570Z,99449.88
2019-04-27T07:59:11.429Z,99444.64
2019-04-27T08:01:42.231Z,99441.52
2019-04-27T08:04:13.287Z,99441.08
2019-04-27T08:06:44.127Z,99443.50
2019-04-27T08:09:14.953Z,99447.48
2019-04-27T08:11:46.051Z,99441.53
2019-04-27T08:14:18.516Z,99445.22
2019-04-27T08:16:49.390Z,99449.17
2019-04-27T08:19:20.406Z,99446.41
2019-04-27T08:21:51.186Z,99451.28
2019-04-27T08:24:22.411Z,99440.56
2019-04-27T08:27:19.413Z,99446.03
2019-04-27T08:30:15.398Z,99441.38
2019-04-27T08:32:49.546Z,99441.04
2019-04-27T08:35:21.110Z,99444.84
2019-04-27T08:37:52.113Z,99440.45
2019-04-27T08:40:23.199Z,99443.30
2019-04-27T08:42:55.649Z,99441.08
2019-04-27T08:45:26.827Z,99436.80
2019-04-27T08:47:59.538Z,99434.73
2019-04-27T08:50:30.383Z,99433.66
2019-04-27T08:53:01.235Z,99430.45
2019-04-27T08:55:32.222Z,99427.23
2019-04-27T08:58:03.113Z,99429.34
2019-04-27T09:00:34.097Z,99424.59
2019-04-27T09:03:04.865Z,99423.93
2019-04-27T09:05:35.753Z,99417.75
2019-04-27T09:08:25.489Z,99424.34
2019-04-27T09:11:14.550Z,99423.31
2019-04-27T09:14:04.167Z,99421.78
2019-04-27T09:17:00.081Z,99412.80
2019-04-27T09:19:39.407Z,99420.63
2019-04-27T09:22:16.115Z,99412.53
2019-04-27T09:24:42.895Z,99410.48
2019-04-27T09:27:13.904Z,99408.25
2019-04-27T09:29:44.693Z,99408.63
2019-04-27T09:32:15.577Z,99417.61
2019-04-27T09:34:46.739Z,99417.23
2019-04-27T09:37:17.556Z,99408.36
2019-04-27T09:39:48.434Z,99409.48
2019-04-27T09:42:19.322Z,99403.73
2019-04-27T09:44:50.202Z,99409.81
2019-04-27T09:47:21.178Z,99406.37
2019-04-27T09:49:52.073Z,99397.14
2019-04-27T09:52:26.251Z,99396.88
2019-04-27T09:54:56.046Z,99393.38
2019-04-27T09:57:26.884Z,99394.69
2019-04-27T09:59:57.785Z,99393.42
2019-04-27T10:02:28.693Z,99393.94
2019-04-27T10:04:59.571Z,99387.98
2019-04-27T10:07:30.474Z,99382.30
2019-04-27T10:10:01.226Z,99379.23
2019-04-27T10:12:34.325Z,99381.69
2019-04-27T10:15:06.134Z,99383.91
2019-04-27T10:17:37.079Z,99362.23
2019-04-27T10:20:08.378Z,99359.97
2019-04-27T10:22:42.891Z,99357.36
2019-04-27T10:25:23.453Z,99350.60
2019-04-27T10:28:00.436Z,99352.05
2019-04-27T10:30:31.845Z,99350.35
2019-04-27T10:33:02.688Z,99355.33
2019-04-27T10:35:33.561Z,99357.13
2019-04-27T10:38:04.537Z,99370.45
2019-04-27T10:40:35.219Z,99361.37
2019-04-27T10:43:06.430Z,99364.08
2019-04-27T10:45:38.555Z,99362.47
2019-04-27T10:48:09.743Z,99354.59
2019-04-27T10:50:41.654Z,99356.91
2019-04-27T10:53:12.962Z,99356.66
2019-04-27T10:55:43.717Z,99349.94
2019-04-27T10:58:14.694Z,99340.48
2019-04-27T11:00:50.580Z,99339.00
2019-04-27T11:03:40.507Z,99327.83
2019-04-27T11:06:36.124Z,99327.55
2019-04-27T11:09:09.653Z,99323.20
2019-04-27T11:11:42.396Z,99328.77
2019-04-27T11:14:13.635Z,99329.20
2019-04-27T11:16:45.988Z,99327.97
2019-04-27T11:19:17.097Z,99319.14
2019-04-27T11:21:48.104Z,99310.70
2019-04-27T11:24:19.158Z,99311.76
2019-04-27T11:26:50.134Z,99315.82
2019-04-27T11:29:21.030Z,99311.17
2019-04-27T11:31:52.100Z,99302.33
2019-04-27T11:34:24.655Z,99301.07
2019-04-27T11:37:03.546Z,99289.88
2019-04-27T11:39:35.947Z,99303.95
2019-04-27T11:42:07.027Z,99295.39
2019-04-27T11:44:38.625Z,99299.53
2019-04-27T11:47:09.442Z,99305.16
2019-04-27T11:49:40.214Z,99304.73
2019-04-27T11:52:11.197Z,99297.02
2019-04-27T11:54:42.094Z,99297.50
2019-04-27T11:57:13.060Z,99294.28
2019-04-27T11:59:43.851Z,99290.36
2019-04-27T12:02:15.617Z,99292.80
2019-04-27T12:04:47.486Z,99302.16
2019-04-27T12:07:18.446Z,99297.64
2019-04-27T12:09:49.252Z,99305.41
2019-04-27T12:12:21.901Z,99291.81
2019-04-27T12:14:53.184Z,99297.54
2019-04-27T12:17:26.611Z,99294.20
2019-04-27T12:19:56.701Z,99285.28
2019-04-27T12:22:27.904Z,99282.23
2019-04-27T12:24:59.806Z,99280.39
2019-04-27T12:28:05.086Z,99273.78
2019-04-27T12:30:53.878Z,99279.19
2019-04-27T12:33:25.614Z,99271.95
2019-04-27T12:35:57.358Z,99260.17
2019-04-27T12:38:28.433Z,99255.42
2019-04-27T12:40:59.349Z,99267.43
2019-04-27T12:43:30.122Z,99263.67
2019-04-27T12:46:00.958Z,99259.25
2019-04-27T12:48:32.361Z,99250.88
2019-04-27T12:51:03.367Z,99255.40
2019-04-27T12:53:52.130Z,99254.69
2019-04-27T12:56:29.643Z,99254.19
2019-04-27T12:59:12.595Z,99252.70
2019-04-27T13:01:43.477Z,99250.23
2019-04-27T13:04:14.350Z,99245.91
2019-04-27T13:06:46.883Z,99249.39
2019-04-27T13:09:17.993Z,99250.54
2019-04-27T13:11:48.865Z,99245.04
2019-04-27T13:14:19.821Z,99242.72
2019-04-27T13:16:50.739Z,99226.20
2019-04-27T13:19:21.634Z,99232.92
2019-04-27T13:21:52.396Z,99227.00
2019-04-27T13:24:23.343Z,99232.23
2019-04-27T13:26:55.957Z,99232.41
2019-04-27T13:29:26.765Z,99230.09
2019-04-27T13:31:57.818Z,99227.28
2019-04-27T13:34:28.726Z,99224.22
2019-04-27T13:37:01.390Z,99228.59
2019-04-27T13:39:32.365Z,99228.08
2019-04-27T13:42:03.226Z,99229.98
2019-04-27T13:44:35.930Z,99233.25
2019-04-27T13:47:27.285Z,99233.84
2019-04-27T13:50:20.961Z,99238.02
2019-04-27T13:52:52.052Z,99248.33
2019-04-27T13:55:22.845Z,99256.53
2019-04-27T13:57:53.831Z,99260.02
2019-04-27T14:00:24.712Z,99261.33
2019-04-27T14:02:55.627Z,99260.95
2019-04-27T14:05:26.509Z,99262.61
2019-04-27T14:07:59.061Z,99248.70
2019-04-27T14:10:29.997Z,99237.91
2019-04-27T14:13:00.906Z,99244.33
2019-04-27T14:15:32.797Z,99259.89
2019-04-27T14:18:03.641Z,99265.25
2019-04-27T14:20:34.514Z,99257.95
2019-04-27T14:23:18.796Z,99260.91
2019-04-27T14:25:49.872Z,99264.53
2019-04-27T14:28:20.725Z,99264.42
2019-04-27T14:30:52.637Z,99264.63
2019-04-27T14:33:23.611Z,99260.19
2019-04-27T14:35:54.733Z,99268.30
2019-04-27T14:38:26.517Z,99275.38
2019-04-27T14:40:59.241Z,99278.56
2019-04-27T14:43:30.020Z,99279.94
2019-04-27T14:46:01.169Z,99275.59
2019-04-27T14:48:32.020Z,99265.68
2019-04-27T14:51:02.994Z,99260.08
2019-04-27T14:53:34.694Z,99263.40
2019-04-27T14:56:06.466Z,99263.40
2019-04-27T14:58:37.407Z,99264.56
2019-04-27T15:01:08.401Z,99272.53
2019-04-27T15:03:39.289Z,99275.41
2019-04-27T15:06:11.036Z,99294.38
2019-04-27T15:08:42.691Z,99343.16
2019-04-27T15:11:19.254Z,99350.20
2019-04-27T15:13:50.436Z,99358.46
2019-04-27T15:16:20.670Z,99362.03
2019-04-27T15:18:56.197Z,99363.94
2019-04-27T15:21:27.010Z,99367.86
2019-04-27T15:24:04.279Z,99365.49
2019-04-27T15:26:30.873Z,99362.42
2019-04-27T15:29:03.491Z,99361.60
2019-04-27T15:31:44.728Z,99357.17
2019-04-27T15:34:41.816Z,99348.39
2019-04-27T15:37:21.159Z,99366.17
2019-04-27T15:40:12.712Z,99364.41
2019-04-27T15:43:04.839Z,99377.89
2019-04-27T15:45:35.830Z,99359.17
2019-04-27T15:48:08.353Z,99365.00
2019-04-27T15:50:39.498Z,99367.42
2019-04-27T15:53:12.590Z,99357.20
2019-04-27T15:55:43.464Z,99361.15
2019-04-27T15:58:19.386Z,99363.57
2019-04-27T16:00:49.647Z,99363.73
2019-04-27T16:03:22.663Z,99363.34
2019-04-27T16:05:52.674Z,99362.61
2019-04-27T16:08:23.549Z,99364.79
2019-04-27T16:10:54.643Z,99369.06
2019-04-27T16:13:26.407Z,99377.05
2019-04-27T16:15:58.407Z,99376.80
2019-04-27T16:23:08.838Z,99389.13
2019-04-27T16:25:48.486Z,99387.11
2019-04-27T16:28:13.493Z,99385.42
2019-04-27T16:30:48.147Z,99379.47
2019-04-27T16:33:21.975Z,99389.23
2019-04-27T16:35:53.043Z,99387.39
2019-04-27T16:38:48.201Z,99392.72
2019-04-27T16:41:19.135Z,99394.80
2019-04-27T16:43:51.130Z,99403.81
2019-04-27T16:46:22.019Z,99410.83
2019-04-27T16:48:52.793Z,99421.28
2019-04-27T16:51:23.726Z,99424.29
2019-04-27T16:53:54.783Z,99422.20
2019-04-27T16:56:25.493Z,99413.06
2019-04-27T16:59:00.561Z,99410.45
2019-04-27T17:01:30.713Z,99418.30
2019-04-27T17:04:01.581Z,99431.44
2019-04-27T17:06:32.315Z,99436.98
2019-04-27T17:09:06.843Z,99428.72
2019-04-27T17:11:38.806Z,99431.86
2019-04-27T17:14:28.989Z,99428.95
2019-04-27T17:17:28.824Z,99428.66
2019-04-27T17:20:01.897Z,99429.92
2019-04-27T17:22:32.769Z,99428.66
2019-04-27T17:25:03.847Z,99426.23
2019-04-27T17:27:40.154Z,99434.28
2019-04-27T17:30:12.426Z,99441.95
2019-04-27T17:32:51.026Z,99453.66
2019-04-27T17:35:22.268Z,99470.02
2019-04-27T17:37:54.429Z,99479.73
2019-04-27T17:40:25.322Z,99479.84
2019-04-27T17:42:59.738Z,99484.70
2019-04-27T17:45:33.784Z,99486.88
2019-04-27T17:48:06.823Z,99507.75
2019-04-27T17:50:33.401Z,99521.61
2019-04-27T17:53:04.164Z,99507.23
2019-04-27T17:55:34.902Z,99492.47
2019-04-27T17:58:06.647Z,99503.41
2019-04-27T18:00:43.093Z,99494.41
2019-04-27T18:03:12.569Z,99507.14
2019-04-27T18:05:43.758Z,99506.11
2019-04-27T18:08:20.428Z,99501.34
2019-04-27T18:10:47.632Z,99498.66
2019-04-27T18:13:20.864Z,99487.80
2019-04-27T18:15:54.067Z,99482.93
2019-04-27T18:18:30.975Z,99485.63
2019-04-27T18:21:01.845Z,99478.67
2019-04-27T18:23:34.492Z,99495.36
2019-04-27T18:26:17.477Z,99505.69
2019-04-27T18:28:52.232Z,99516.66
2019-04-27T18:31:18.595Z,99518.63
2019-04-27T18:33:49.498Z,99521.84
2019-04-27T18:36:20.270Z,99523.48
2019-04-27T18:38:51.069Z,99543.25
2019-04-27T18:41:21.841Z,99533.20
2019-04-27T18:43:55.175Z,99531.16
2019-04-27T18:46:25.151Z,99547.28
2019-04-27T18:49:14.716Z,99555.78
2019-04-27T18:52:04.280Z,99562.58
2019-04-27T18:54:38.160Z,99563.31
2019-04-27T18:57:10.803Z,99565.84
2019-04-27T18:59:40.687Z,99573.20
2019-04-27T19:02:11.399Z,99578.78
2019-04-27T19:04:42.110Z,99580.34
2019-04-27T19:07:12.645Z,99575.85
2019-04-27T19:09:43.328Z,99585.80
2019-04-27T19:12:14.164Z,99582.16
2019-04-27T19:14:45.971Z,99586.22
2019-04-27T19:17:19.666Z,99584.33
2019-04-27T19:19:49.982Z,99587.11
2019-04-27T19:22:20.736Z,99588.99
2019-04-27T19:24:51.356Z,99589.63
2019-04-27T19:27:42.626Z,99592.02
2019-04-27T19:30:28.068Z,99602.39
2019-04-27T19:32:59.050Z,99599.07
2019-04-27T19:35:30.907Z,99600.56
2019-04-27T19:38:01.613Z,99602.17
2019-04-27T19:40:33.629Z,99605.70
2019-04-27T19:43:04.412Z,99605.88
2019-04-27T19:45:35.575Z,99612.84
2019-04-27T19:48:06.494Z,99616.75
2019-04-27T19:50:39.129Z,99623.39
2019-04-27T19:53:09.787Z,99623.72
2019-04-27T19:55:40.737Z,99619.06
2019-04-27T19:58:14.390Z,99628.14
2019-04-27T20:01:11.483Z,99620.28
2019-04-27T20:03:38.674Z,99626.92
2019-04-27T20:06:09.518Z,99625.28
2019-04-27T20:08:42.449Z,99626.38
2019-04-27T20:11:13.342Z,99632.98
2019-04-27T20:13:44.200Z,99636.08
2019-04-27T20:16:14.986Z,99641.80
2019-04-27T20:18:45.710Z,99652.25
2019-04-27T20:21:16.445Z,99672.14
2019-04-27T20:23:47.227Z,99692.55
2019-04-27T20:26:18.117Z,99696.45
2019-04-27T20:28:48.845Z,99711.95
2019-04-27T20:31:19.747Z,99705.64
2019-04-27T20:33:50.483Z,99724.97
2019-04-27T20:36:21.424Z,99731.61
2019-04-27T20:38:52.212Z,99737.34
2019-04-27T20:41:22.903Z,99732.17
2019-04-27T20:43:53.572Z,99730.48
2019-04-27T20:46:25.422Z,99719.14
2019-04-27T20:48:56.201Z,99713.44
2019-04-27T20:51:50.092Z,99716.88
2019-04-27T20:54:16.987Z,99712.92
2019-04-27T20:56:47.844Z,99721.55
2019-04-27T20:59:18.436Z,99722.27
2019-04-27T21:01:49.290Z,99720.28
2019-04-27T21:04:22.675Z,99729.46
2019-04-27T21:06:56.625Z,99728.83
2019-04-27T21:09:27.185Z,99732.42
2019-04-27T21:11:58.042Z,99736.25
2019-04-27T21:14:28.744Z,99731.08
2019-04-27T21:17:01.596Z,99740.13
2019-04-27T21:19:31.809Z,99747.16
2019-04-27T21:22:02.597Z,99748.50
2019-04-27T21:24:33.303Z,99769.02
2019-04-27T21:27:04.535Z,99762.67
2019-04-27T21:29:35.619Z,99756.53
2019-04-27T21:32:07.942Z,99761.27
2019-04-27T21:34:41.317Z,99771.97
2019-04-27T21:37:12.854Z,99766.03
2019-04-27T21:39:43.404Z,99757.39
2019-04-27T21:42:14.265Z,99760.79
2019-04-27T21:44:44.934Z,99756.59
2019-04-27T21:47:15.594Z,99755.62
2019-04-27T21:49:46.432Z,99750.95
2019-04-27T21:52:26.397Z,99746.57
2019-04-27T21:54:57.217Z,99739.45
2019-04-27T21:57:27.817Z,99741.13
2019-04-27T21:59:58.479Z,99741.58
2019-04-27T22:02:31.113Z,99746.38
2019-04-27T22:05:02.449Z,99746.24
2019-04-27T22:07:37.433Z,99744.82
2019-04-27T22:10:07.165Z,99743.61
2019-04-27T22:12:37.950Z,99737.09
2019-04-27T22:15:08.735Z,99727.63
2019-04-27T22:17:39.427Z,99715.03
2019-04-27T22:20:11.703Z,99719.70
2019-04-27T22:22:46.450Z,99709.86
2019-04-27T22:25:18.930Z,99708.67
2019-04-27T22:27:51.254Z,99700.84
2019-04-27T22:30:22.026Z,99697.14
2019-04-27T22:32:52.598Z,99703.19
2019-04-27T22:35:23.406Z,99711.08
2019-04-27T22:37:54.269Z,99718.94
2019-04-27T22:40:47.512Z,99733.37
2019-04-27T22:43:36.207Z,99735.45
2019-04-27T22:46:09.081Z,99740.38
2019-04-27T22:48:41.530Z,99747.53
2019-04-27T22:51:12.350Z,99753.65
2019-04-27T22:53:43.325Z,99750.77
2019-04-27T22:56:19.358Z,99743.55
2019-04-27T22:59:00.525Z,99740.86
2019-04-27T23:02:03.142Z,99749.58
2019-04-27T23:04:38.202Z,99744.25
2019-04-27T23:07:08.937Z,99745.59
2019-04-27T23:09:40.794Z,99738.94
2019-04-27T23:12:12.422Z,99736.39
2019-04-27T23:14:43.590Z,99739.38
2019-04-27T23:17:31.642Z,99736.16
2019-04-27T23:20:02.379Z,99741.93
2019-04-27T23:22:33.348Z,99736.76
2019-04-27T23:25:04.401Z,99733.37
2019-04-27T23:27:35.178Z,99739.75
2019-04-27T23:30:06.373Z,99735.28
2019-04-27T23:32:43.052Z,99727.72
2019-04-27T23:35:14.041Z,99737.13
2019-04-27T23:37:44.754Z,99738.70
2019-04-27T23:40:15.967Z,99732.36
2019-04-27T23:42:46.792Z,99738.58
2019-04-27T23:45:17.970Z,99741.77
2019-04-27T23:47:48.882Z,99740.45
2019-04-27T23:50:21.766Z,99745.55
2019-04-27T23:53:13.746Z,99742.50
2019-04-27T23:55:44.557Z,99733.73
2019-04-27T23:58:15.438Z,99720.97
